Time;durP1;ratioP1;P1;durP2;ratioP2;P2;SDS_P1;SDS_P2;PMS_P1;PMS_P2;Temp;Humidity;BMP_temperature;BMP_pressure;BME280_temperature;BME280_humidity;BME280_pressure;Samples;Min_cycle;Max_cycle;Signal;HPM_P1;HPM_P2
2022/02/25 00:02:02;;;;;;;23.85;13.98;;;;;;;;;;4857958;29;20112;-79
2022/02/25 00:04:28;;;;;;;25.23;14.07;;;;;;;;;;4859511;29;20040;-79
2022/02/25 00:06:54;;;;;;;21.98;9.73;;;;;;;;;;4857943;29;20038;-79
2022/02/25 00:09:20;;;;;;;20.13;9.43;;;;;;;;;;4857629;29;20073;-79
2022/02/25 00:11:46;;;;;;;16.10;6.15;;;;;;;;;;4858141;29;20044;-79
2022/02/25 00:14:12;;;;;;;12.95;5.13;;;;;;;;;;4859642;29;20202;-79
2022/02/25 00:16:38;;;;;;;15.02;4.47;;;;;;;;;;4857717;29;20153;-79
2022/02/25 00:19:04;;;;;;;16.83;4.38;;;;;;;;;;4857778;29;20053;-79
2022/02/25 00:21:31;;;;;;;14.70;4.75;;;;;;;;;;4857359;29;20040;-79
2022/02/25 00:23:57;;;;;;;13.50;3.58;;;;;;;;;;4867906;29;20041;-79
2022/02/25 00:26:23;;;;;;;10.45;3.03;;;;;;;;;;4857577;29;20859;-79
2022/02/25 00:28:49;;;;;;;12.15;3.65;;;;;;;;;;4857280;29;20073;-79
2022/02/25 00:31:15;;;;;;;11.27;3.83;;;;;;;;;;4857792;29;20124;-79
2022/02/25 00:33:41;;;;;;;11.70;4.55;;;;;;;;;;4857340;29;20479;-79
2022/02/25 00:36:07;;;;;;;13.65;4.15;;;;;;;;;;4870529;29;20033;-80
2022/02/25 00:38:33;;;;;;;15.90;5.07;;;;;;;;;;4866705;29;20057;-79
2022/02/25 00:40:59;;;;;;;14.77;4.47;;;;;;;;;;4863628;29;20072;-79
2022/02/25 00:43:26;;;;;;;11.05;3.88;;;;;;;;;;4858389;29;20045;-79
2022/02/25 00:45:51;;;;;;;13.55;4.68;;;;;;;;;;4856997;29;20032;-79
2022/02/25 00:48:17;;;;;;;16.52;4.40;;;;;;;;;;4857420;29;20037;-78
2022/02/25 00:50:44;;;;;;;16.42;5.22;;;;;;;;;;4858867;29;20033;-79
2022/02/25 00:53:10;;;;;;;11.18;4.80;;;;;;;;;;4857266;29;20037;-78
2022/02/25 00:55:36;;;;;;;15.30;6.88;;;;;;;;;;4873669;29;20037;-79
2022/02/25 00:58:02;;;;;;;14.50;7.70;;;;;;;;;;4862245;29;20038;-79
2022/02/25 01:00:28;;;;;;;17.20;6.65;;;;;;;;;;4857000;29;20041;-79
2022/02/25 01:02:54;;;;;;;20.13;6.18;;;;;;;;;;4857493;29;20037;-79
2022/02/25 01:05:20;;;;;;;16.85;6.03;;;;;;;;;;4856639;29;20041;-79
2022/02/25 01:07:46;;;;;;;18.58;5.97;;;;;;;;;;4873927;29;20136;-79
2022/02/25 01:10:14;;;;;;;12.70;4.90;;;;;;;;;;4858446;29;20159;-79
2022/02/25 01:12:40;;;;;;;19.10;5.82;;;;;;;;;;4857268;29;20041;-79
2022/02/25 01:15:07;;;;;;;12.15;3.45;;;;;;;;;;4863109;29;20041;-79
2022/02/25 01:17:33;;;;;;;5.25;0.80;;;;;;;;;;4856927;29;20484;-79
2022/02/25 01:20:00;;;;;;;3.35;0.80;;;;;;;;;;4856801;29;20749;-78
2022/02/25 01:22:26;;;;;;;2.42;0.60;;;;;;;;;;4857515;29;20041;-79
2022/02/25 01:24:53;;;;;;;3.50;0.50;;;;;;;;;;4870853;29;20061;-79
2022/02/25 01:27:19;;;;;;;1.20;0.30;;;;;;;;;;4863085;29;20056;-79
2022/02/25 01:29:45;;;;;;;2.55;0.40;;;;;;;;;;4857433;29;20041;-79
2022/02/25 01:32:11;;;;;;;4.63;0.50;;;;;;;;;;4857430;29;20038;-79
2022/02/25 01:34:37;;;;;;;1.55;0.30;;;;;;;;;;4862729;29;20069;-79
2022/02/25 01:37:04;;;;;;;2.05;0.47;;;;;;;;;;4876345;29;20041;-80
2022/02/25 01:39:30;;;;;;;2.38;0.50;;;;;;;;;;4879041;29;20071;-79
2022/02/25 01:41:56;;;;;;;1.80;0.40;;;;;;;;;;4860390;29;20069;-78
2022/02/25 01:44:23;;;;;;;1.65;0.30;;;;;;;;;;4860278;29;20034;-79
2022/02/25 01:46:50;;;;;;;1.75;0.10;;;;;;;;;;4863071;29;20033;-79
2022/02/25 01:49:16;;;;;;;1.92;0.82;;;;;;;;;;4878950;29;20033;-79
2022/02/25 01:51:42;;;;;;;4.03;0.20;;;;;;;;;;4862075;29;20052;-79
2022/02/25 01:54:08;;;;;;;0.63;0.20;;;;;;;;;;4867922;29;20556;-79
2022/02/25 01:56:37;;;;;;;2.20;0.30;;;;;;;;;;4878631;29;20037;-78
2022/02/25 01:59:03;;;;;;;1.85;0.20;;;;;;;;;;4860790;29;20054;-80
2022/02/25 02:01:29;;;;;;;1.98;0.20;;;;;;;;;;4860097;29;20112;-79
2022/02/25 02:03:58;;;;;;;1.70;0.20;;;;;;;;;;4859561;29;20045;-79
2022/02/25 02:06:24;;;;;;;1.40;0.10;;;;;;;;;;4859875;29;20116;-79
2022/02/25 02:08:50;;;;;;;0.52;0.10;;;;;;;;;;4859571;29;20459;-79
2022/02/25 02:11:29;;;;;;;1.65;0.30;;;;;;;;;;4860114;29;20396;-79
2022/02/25 02:13:56;;;;;;;2.90;0.20;;;;;;;;;;4859357;29;20069;-79
2022/02/25 02:16:22;;;;;;;1.98;0.20;;;;;;;;;;4859825;29;20037;-79
2022/02/25 02:18:48;;;;;;;1.10;0.30;;;;;;;;;;4869359;29;20494;-79
2022/02/25 02:21:14;;;;;;;0.93;0.20;;;;;;;;;;4878016;29;20112;-79
2022/02/25 02:23:40;;;;;;;0.73;0.13;;;;;;;;;;4871339;29;20041;-79
2022/02/25 02:26:06;;;;;;;0.70;0.22;;;;;;;;;;4860481;29;20041;-79
2022/02/25 02:28:32;;;;;;;2.28;0.30;;;;;;;;;;4861606;29;20038;-79
2022/02/25 02:30:58;;;;;;;2.05;0.25;;;;;;;;;;4865595;29;20082;-79
2022/02/25 02:33:24;;;;;;;1.73;0.25;;;;;;;;;;4867313;29;20073;-79
2022/02/25 02:35:50;;;;;;;2.15;0.30;;;;;;;;;;4859196;29;20083;-79
2022/02/25 02:38:16;;;;;;;2.58;0.35;;;;;;;;;;4864494;29;20418;-79
2022/02/25 02:40:42;;;;;;;3.13;0.60;;;;;;;;;;4859344;29;20037;-79
2022/02/25 02:43:10;;;;;;;3.03;0.30;;;;;;;;;;4861710;29;20417;-78
2022/02/25 02:45:37;;;;;;;3.08;0.35;;;;;;;;;;4864698;29;20112;-79
2022/02/25 02:48:03;;;;;;;3.20;0.40;;;;;;;;;;4857643;29;20045;-79
2022/02/25 02:50:30;;;;;;;2.15;0.30;;;;;;;;;;4858141;29;20540;-78
2022/02/25 02:52:56;;;;;;;1.50;0.30;;;;;;;;;;4844047;29;20372;-79
2022/02/25 02:55:22;;;;;;;5.20;0.70;;;;;;;;;;4863987;29;20116;-79
2022/02/25 02:57:49;;;;;;;2.20;0.50;;;;;;;;;;4864590;29;20121;-79
2022/02/25 03:00:15;;;;;;;2.63;0.55;;;;;;;;;;4862511;29;20526;-79
2022/02/25 03:02:41;;;;;;;3.17;0.52;;;;;;;;;;4867753;29;20108;-78
2022/02/25 03:05:07;;;;;;;3.20;0.60;;;;;;;;;;4859928;29;20040;-78
2022/02/25 03:07:33;;;;;;;2.05;0.40;;;;;;;;;;4871872;29;20383;-79
2022/02/25 03:09:59;;;;;;;3.60;0.50;;;;;;;;;;4861567;29;20116;-78
2022/02/25 03:12:25;;;;;;;3.67;0.63;;;;;;;;;;4864900;29;20033;-78
2022/02/25 03:14:51;;;;;;;5.22;0.50;;;;;;;;;;4858118;29;20048;-79
2022/02/25 03:17:17;;;;;;;3.65;0.52;;;;;;;;;;4867924;29;20037;-79
2022/02/25 03:19:44;;;;;;;3.72;0.30;;;;;;;;;;4858978;29;20149;-79
2022/02/25 03:22:10;;;;;;;3.38;0.60;;;;;;;;;;4857644;29;20029;-79
2022/02/25 03:24:36;;;;;;;3.28;0.50;;;;;;;;;;4864994;29;20538;-79
2022/02/25 03:27:02;;;;;;;2.03;0.50;;;;;;;;;;4860509;29;20515;-79
2022/02/25 03:29:28;;;;;;;4.97;0.57;;;;;;;;;;4863212;29;20441;-78
2022/02/25 03:31:54;;;;;;;2.20;0.40;;;;;;;;;;4857986;29;20696;-78
2022/02/25 03:34:20;;;;;;;2.38;0.40;;;;;;;;;;4857359;29;20045;-79
2022/02/25 03:36:46;;;;;;;4.22;0.38;;;;;;;;;;4860727;29;20451;-78
2022/02/25 03:39:12;;;;;;;4.13;0.50;;;;;;;;;;4820775;29;1140620;-78
2022/02/25 03:41:38;;;;;;;3.42;0.30;;;;;;;;;;4858532;29;20414;-78
2022/02/25 03:44:04;;;;;;;3.22;0.40;;;;;;;;;;4858033;29;20046;-78
2022/02/25 03:46:30;;;;;;;3.22;0.85;;;;;;;;;;4858398;29;20835;-78
2022/02/25 03:48:56;;;;;;;1.05;0.30;;;;;;;;;;4862703;29;20847;-79
2022/02/25 03:51:23;;;;;;;3.67;0.32;;;;;;;;;;4858618;29;20813;-78
2022/02/25 03:53:49;;;;;;;3.88;0.30;;;;;;;;;;4860693;29;20036;-78
2022/02/25 03:56:16;;;;;;;3.30;0.40;;;;;;;;;;4876489;29;20523;-79
2022/02/25 03:58:42;;;;;;;3.47;0.30;;;;;;;;;;4859712;29;20416;-78
2022/02/25 04:01:08;;;;;;;2.28;1.25;;;;;;;;;;4858634;29;20069;-79
2022/02/25 04:03:34;;;;;;;3.00;0.57;;;;;;;;;;4872827;29;20050;-79
2022/02/25 04:06:00;;;;;;;2.42;0.43;;;;;;;;;;4870423;29;20038;-78
2022/02/25 04:08:27;;;;;;;4.93;0.40;;;;;;;;;;4875533;29;20059;-78
2022/02/25 04:10:53;;;;;;;2.20;0.40;;;;;;;;;;4869007;29;20052;-78
2022/02/25 04:13:19;;;;;;;3.80;0.50;;;;;;;;;;4857733;29;20045;-79
2022/02/25 04:15:45;;;;;;;3.90;0.40;;;;;;;;;;4874881;29;20024;-78
2022/02/25 04:18:11;;;;;;;2.92;0.38;;;;;;;;;;4876428;29;20062;-78
2022/02/25 04:20:38;;;;;;;6.00;1.20;;;;;;;;;;4864081;29;20132;-78
2022/02/25 04:23:04;;;;;;;7.13;2.08;;;;;;;;;;4858089;29;20037;-78
2022/02/25 04:25:31;;;;;;;15.02;6.65;;;;;;;;;;4869712;29;20043;-78
2022/02/25 04:27:57;;;;;;;11.45;4.65;;;;;;;;;;4859217;29;20038;-78
2022/02/25 04:30:24;;;;;;;4.00;1.08;;;;;;;;;;4857187;29;20045;-78
2022/02/25 04:32:50;;;;;;;6.68;2.17;;;;;;;;;;4861308;29;20129;-78
2022/02/25 04:35:16;;;;;;;7.05;1.15;;;;;;;;;;4871751;29;20037;-79
2022/02/25 04:37:42;;;;;;;7.55;1.80;;;;;;;;;;4860006;29;20057;-78
2022/02/25 04:40:08;;;;;;;9.48;4.82;;;;;;;;;;4857181;29;20042;-79
2022/02/25 04:42:35;;;;;;;4.70;1.50;;;;;;;;;;4864307;29;20064;-78
2022/02/25 04:45:01;;;;;;;5.65;1.20;;;;;;;;;;4858063;29;20093;-79
2022/02/25 04:47:27;;;;;;;5.50;1.02;;;;;;;;;;4857684;29;20041;-78
2022/02/25 04:49:53;;;;;;;4.70;1.13;;;;;;;;;;4860641;29;20065;-79
2022/02/25 04:52:19;;;;;;;2.60;0.80;;;;;;;;;;4858681;29;20063;-79
2022/02/25 04:54:45;;;;;;;2.92;0.80;;;;;;;;;;4857574;29;20069;-78
2022/02/25 04:57:12;;;;;;;3.78;1.20;;;;;;;;;;4867242;29;20093;-79
2022/02/25 04:59:38;;;;;;;8.05;1.42;;;;;;;;;;4875479;29;20033;-78
2022/02/25 05:02:04;;;;;;;2.78;0.88;;;;;;;;;;4866938;29;20040;-78
2022/02/25 05:04:30;;;;;;;3.15;0.80;;;;;;;;;;4868801;29;20073;-78
2022/02/25 05:06:56;;;;;;;5.03;1.33;;;;;;;;;;4859368;29;20082;-79
2022/02/25 05:09:22;;;;;;;8.45;3.40;;;;;;;;;;4857534;29;20037;-78
2022/02/25 05:11:48;;;;;;;12.30;4.50;;;;;;;;;;4863534;29;20428;-79
2022/02/25 05:22:29;;;;;;;13.45;5.35;;;;;;;;;;4860878;29;20502;-79
2022/02/25 05:24:55;;;;;;;13.88;5.75;;;;;;;;;;4860410;29;20057;-78
2022/02/25 05:27:21;;;;;;;12.73;4.75;;;;;;;;;;4860404;29;20084;-78
2022/02/25 05:29:48;;;;;;;17.13;6.28;;;;;;;;;;4860663;29;20045;-79
2022/02/25 05:32:14;;;;;;;15.88;5.57;;;;;;;;;;4860398;29;20081;-78
2022/02/25 05:34:40;;;;;;;14.57;6.40;;;;;;;;;;4860410;29;20423;-79
2022/02/25 05:37:06;;;;;;;20.13;7.15;;;;;;;;;;4860133;29;20038;-78
2022/02/25 05:39:32;;;;;;;22.23;9.35;;;;;;;;;;4874605;29;20041;-79
2022/02/25 05:41:58;;;;;;;45.00;19.25;;;;;;;;;;4860346;29;20198;-78
2022/02/25 05:44:24;;;;;;;48.85;20.52;;;;;;;;;;4874738;29;20112;-79
2022/02/25 05:46:50;;;;;;;52.00;23.40;;;;;;;;;;4874354;29;20423;-79
2022/02/25 05:49:16;;;;;;;46.42;20.13;;;;;;;;;;4859468;29;20041;-79
2022/02/25 05:51:42;;;;;;;43.17;18.33;;;;;;;;;;4869703;29;20490;-79
2022/02/25 05:54:08;;;;;;;34.55;15.02;;;;;;;;;;4878174;29;20033;-79
2022/02/25 05:56:34;;;;;;;33.97;14.27;;;;;;;;;;4868713;29;20045;-78
2022/02/25 05:59:00;;;;;;;31.27;12.25;;;;;;;;;;4867607;29;20117;-78
2022/02/25 06:01:26;;;;;;;23.48;10.10;;;;;;;;;;4875555;29;20471;-78
2022/02/25 06:03:54;;;;;;;25.73;11.52;;;;;;;;;;4873080;29;20116;-79
2022/02/25 06:06:20;;;;;;;19.70;7.65;;;;;;;;;;4859842;29;20206;-79
2022/02/25 06:08:46;;;;;;;11.55;4.20;;;;;;;;;;4866711;29;20491;-78
2022/02/25 06:11:12;;;;;;;9.43;3.67;;;;;;;;;;4864107;29;20361;-78
2022/02/25 06:13:38;;;;;;;8.38;2.67;;;;;;;;;;4861733;29;20040;-79
2022/02/25 06:16:04;;;;;;;7.57;3.10;;;;;;;;;;4865051;29;20045;-78
2022/02/25 06:18:30;;;;;;;28.73;17.50;;;;;;;;;;4870879;29;20038;-78
2022/02/25 06:20:56;;;;;;;24.58;13.15;;;;;;;;;;4864750;29;20040;-78
2022/02/25 06:23:24;;;;;;;23.40;12.38;;;;;;;;;;4867330;29;20037;-81
2022/02/25 06:25:50;;;;;;;23.80;12.75;;;;;;;;;;4848486;29;20441;-80
2022/02/25 06:28:16;;;;;;;23.38;10.25;;;;;;;;;;4868281;29;20048;-77
2022/02/25 06:30:42;;;;;;;22.17;11.32;;;;;;;;;;4869698;29;20040;-76
2022/02/25 06:33:08;;;;;;;17.52;9.05;;;;;;;;;;4862311;29;20042;-77
2022/02/25 06:35:34;;;;;;;11.52;4.80;;;;;;;;;;4863393;29;20033;-76
2022/02/25 06:38:01;;;;;;;10.60;3.03;;;;;;;;;;4867485;29;20057;-76
2022/02/25 06:40:27;;;;;;;7.20;2.35;;;;;;;;;;4869394;29;20060;-76
2022/02/25 06:42:53;;;;;;;8.38;2.38;;;;;;;;;;4863651;29;20040;-77
2022/02/25 06:45:20;;;;;;;8.52;3.00;;;;;;;;;;4868431;29;20037;-76
2022/02/25 06:47:46;;;;;;;17.17;7.25;;;;;;;;;;4866295;29;20041;-77
2022/02/25 06:50:13;;;;;;;17.50;8.77;;;;;;;;;;4869619;29;20028;-76
2022/02/25 06:52:40;;;;;;;40.97;25.77;;;;;;;;;;4863322;29;20065;-76
2022/02/25 06:55:07;;;;;;;21.77;13.55;;;;;;;;;;4865389;29;20041;-76
2022/02/25 06:57:33;;;;;;;14.63;5.97;;;;;;;;;;4870865;29;20037;-76
2022/02/25 06:59:59;;;;;;;10.02;4.13;;;;;;;;;;4867923;29;20032;-76
2022/02/25 07:02:25;;;;;;;11.68;5.40;;;;;;;;;;4858870;29;20359;-76
2022/02/25 07:04:51;;;;;;;12.32;3.75;;;;;;;;;;4859930;29;20049;-77
2022/02/25 07:07:17;;;;;;;11.88;4.78;;;;;;;;;;4861832;29;20036;-76
2022/02/25 07:09:43;;;;;;;12.27;4.40;;;;;;;;;;4861965;29;20037;-76
2022/02/25 07:12:09;;;;;;;10.30;3.50;;;;;;;;;;4866426;29;20038;-77
2022/02/25 07:14:35;;;;;;;10.25;3.13;;;;;;;;;;4866047;29;20045;-77
2022/02/25 07:17:01;;;;;;;11.52;3.30;;;;;;;;;;4860662;29;20045;-77
2022/02/25 07:19:27;;;;;;;10.48;3.17;;;;;;;;;;4860676;29;20141;-77
2022/02/25 07:21:53;;;;;;;11.52;3.40;;;;;;;;;;4867491;29;20066;-76
2022/02/25 07:24:19;;;;;;;9.77;4.03;;;;;;;;;;4860738;29;20071;-76
2022/02/25 07:26:45;;;;;;;12.73;3.85;;;;;;;;;;4863421;29;20550;-76
2022/02/25 07:29:12;;;;;;;11.23;3.55;;;;;;;;;;4861157;29;20049;-77
2022/02/25 07:31:38;;;;;;;11.25;3.75;;;;;;;;;;4870622;29;20051;-76
2022/02/25 07:34:06;;;;;;;9.73;3.33;;;;;;;;;;4870060;29;20050;-76
2022/02/25 07:36:33;;;;;;;9.43;2.30;;;;;;;;;;4865893;29;20072;-76
2022/02/25 07:38:59;;;;;;;8.13;2.53;;;;;;;;;;4867210;29;20065;-77
2022/02/25 07:41:25;;;;;;;8.40;2.47;;;;;;;;;;4867740;29;20033;-76
2022/02/25 07:43:51;;;;;;;8.43;2.85;;;;;;;;;;4870746;29;20037;-76
2022/02/25 07:46:17;;;;;;;8.60;2.28;;;;;;;;;;4867621;29;20120;-76
2022/02/25 07:48:43;;;;;;;9.18;1.90;;;;;;;;;;4871412;29;20849;-76
2022/02/25 07:51:10;;;;;;;9.73;2.80;;;;;;;;;;4864483;29;20048;-77
2022/02/25 07:53:36;;;;;;;8.43;1.90;;;;;;;;;;4847231;29;20789;-76
2022/02/25 07:56:02;;;;;;;10.13;1.88;;;;;;;;;;4863996;29;20094;-77
2022/02/25 07:58:29;;;;;;;9.15;3.17;;;;;;;;;;4872285;29;20040;-77
2022/02/25 08:00:55;;;;;;;11.40;3.05;;;;;;;;;;4864785;29;20121;-76
2022/02/25 08:03:21;;;;;;;12.73;3.97;;;;;;;;;;4867620;29;20041;-76
2022/02/25 08:05:47;;;;;;;12.57;3.08;;;;;;;;;;4869518;29;20035;-77
2022/02/25 08:08:13;;;;;;;9.10;3.13;;;;;;;;;;4861276;29;20074;-76
2022/02/25 08:10:39;;;;;;;10.82;3.17;;;;;;;;;;4867364;29;20025;-76
2022/02/25 08:13:08;;;;;;;7.97;2.83;;;;;;;;;;4861649;29;20407;-76
2022/02/25 08:15:34;;;;;;;9.52;2.40;;;;;;;;;;4863774;29;20045;-76
2022/02/25 08:18:01;;;;;;;10.27;3.25;;;;;;;;;;4865850;29;20051;-76
2022/02/25 08:20:27;;;;;;;12.85;2.42;;;;;;;;;;4859336;29;20029;-76
2022/02/25 08:22:57;;;;;;;14.75;2.40;;;;;;;;;;4866687;29;20113;-76
2022/02/25 08:25:23;;;;;;;7.82;2.33;;;;;;;;;;4866939;29;20025;-77
2022/02/25 08:27:49;;;;;;;7.68;2.20;;;;;;;;;;4857781;29;20135;-76
2022/02/25 08:30:15;;;;;;;7.10;1.98;;;;;;;;;;4864937;29;20470;-76
2022/02/25 08:32:42;;;;;;;12.40;2.45;;;;;;;;;;4861821;29;20369;-77
2022/02/25 08:35:09;;;;;;;9.70;2.50;;;;;;;;;;4862776;29;20144;-77
2022/02/25 08:37:35;;;;;;;7.95;1.85;;;;;;;;;;4859406;29;20072;-77
2022/02/25 08:40:03;;;;;;;9.73;1.85;;;;;;;;;;4864731;29;20548;-77
2022/02/25 08:42:30;;;;;;;6.43;1.77;;;;;;;;;;4857674;29;20825;-77
2022/02/25 08:44:56;;;;;;;9.70;2.20;;;;;;;;;;4868148;29;20036;-77
2022/02/25 08:47:22;;;;;;;6.60;2.30;;;;;;;;;;4866476;29;20039;-76
2022/02/25 08:49:48;;;;;;;9.43;2.25;;;;;;;;;;4859951;29;20502;-77
2022/02/25 08:52:14;;;;;;;9.18;2.10;;;;;;;;;;4857481;29;20081;-77
2022/02/25 08:54:40;;;;;;;10.52;2.33;;;;;;;;;;4864707;29;20038;-76
2022/02/25 08:57:07;;;;;;;11.07;2.55;;;;;;;;;;4862363;29;20038;-76
2022/02/25 08:59:33;;;;;;;7.55;1.70;;;;;;;;;;4866201;29;20523;-76
2022/02/25 09:01:59;;;;;;;9.48;1.88;;;;;;;;;;4864715;29;20057;-76
2022/02/25 09:04:25;;;;;;;9.25;2.20;;;;;;;;;;4860126;29;20857;-76
2022/02/25 09:06:51;;;;;;;11.40;2.40;;;;;;;;;;4865347;29;20739;-76
2022/02/25 09:09:17;;;;;;;9.85;2.03;;;;;;;;;;4864887;29;20037;-76
2022/02/25 09:11:43;;;;;;;7.60;1.60;;;;;;;;;;4865390;29;20037;-76
2022/02/25 09:14:10;;;;;;;8.65;1.65;;;;;;;;;;4863586;29;20400;-76
2022/02/25 09:16:36;;;;;;;8.02;1.65;;;;;;;;;;4865728;29;20037;-76
2022/02/25 09:19:02;;;;;;;12.65;2.28;;;;;;;;;;4857927;29;20463;-76
2022/02/25 09:21:29;;;;;;;12.38;2.17;;;;;;;;;;4866439;29;20082;-76
2022/02/25 09:23:55;;;;;;;5.88;1.60;;;;;;;;;;4864791;29;20806;-77
2022/02/25 09:26:22;;;;;;;8.27;1.90;;;;;;;;;;4862102;29;20068;-76
2022/02/25 09:28:48;;;;;;;7.75;1.90;;;;;;;;;;4867877;29;20124;-76
2022/02/25 09:31:14;;;;;;;12.25;2.20;;;;;;;;;;4857685;29;20045;-76
2022/02/25 09:33:40;;;;;;;7.05;2.53;;;;;;;;;;4868192;29;20540;-76
2022/02/25 09:36:07;;;;;;;9.30;2.40;;;;;;;;;;4862975;29;20041;-77
2022/02/25 09:38:33;;;;;;;8.40;2.22;;;;;;;;;;4847069;29;20050;-77
2022/02/25 09:40:59;;;;;;;8.15;1.83;;;;;;;;;;4861520;29;20471;-77
2022/02/25 09:43:26;;;;;;;8.70;1.92;;;;;;;;;;4868094;29;20487;-76
2022/02/25 09:45:52;;;;;;;6.95;1.90;;;;;;;;;;4861621;29;20140;-77
2022/02/25 09:48:18;;;;;;;7.78;1.98;;;;;;;;;;4864485;29;20052;-77
2022/02/25 09:50:46;;;;;;;4.68;1.65;;;;;;;;;;4856713;29;20033;-77
2022/02/25 09:53:14;;;;;;;14.38;1.65;;;;;;;;;;4870477;29;20040;-77
2022/02/25 09:55:41;;;;;;;5.95;1.80;;;;;;;;;;4862401;29;20511;-77
2022/02/25 09:58:07;;;;;;;5.88;1.70;;;;;;;;;;4861684;29;20487;-77
2022/02/25 10:00:34;;;;;;;8.82;1.63;;;;;;;;;;4867717;29;20037;-77
2022/02/25 10:03:02;;;;;;;7.05;1.70;;;;;;;;;;4866674;29;20105;-77
2022/02/25 10:05:29;;;;;;;8.05;1.73;;;;;;;;;;4867807;29;20116;-76
2022/02/25 10:07:56;;;;;;;7.95;1.80;;;;;;;;;;4874464;29;20041;-77
2022/02/25 10:10:27;;;;;;;7.60;1.42;;;;;;;;;;4862795;29;20046;-77
2022/02/25 10:12:57;;;;;;;8.93;1.65;;;;;;;;;;4867053;29;20041;-77
2022/02/25 10:15:31;;;;;;;11.15;2.05;;;;;;;;;;4860874;29;20666;-77
2022/02/25 10:18:01;;;;;;;11.15;1.67;;;;;;;;;;4867127;29;20121;-77
2022/02/25 10:20:27;;;;;;;7.68;1.48;;;;;;;;;;4869881;29;20040;-77
2022/02/25 10:22:53;;;;;;;7.53;1.40;;;;;;;;;;4868944;29;20037;-77
2022/02/25 10:25:21;;;;;;;6.18;1.20;;;;;;;;;;4860426;29;20038;-77
2022/02/25 10:27:51;;;;;;;5.85;1.30;;;;;;;;;;4867119;29;20078;-77
2022/02/25 10:30:21;;;;;;;10.40;2.20;;;;;;;;;;4861872;29;20495;-77
2022/02/25 10:32:51;;;;;;;8.15;1.48;;;;;;;;;;4867565;29;20062;-77
2022/02/25 10:35:26;;;;;;;6.93;1.50;;;;;;;;;;4863695;29;20061;-77
2022/02/25 10:37:57;;;;;;;6.03;0.98;;;;;;;;;;4866694;29;20077;-77
2022/02/25 10:40:23;;;;;;;4.10;0.77;;;;;;;;;;4869209;29;20070;-77
2022/02/25 10:42:49;;;;;;;3.50;0.85;;;;;;;;;;4868118;29;20033;-77
2022/02/25 10:45:36;;;;;;;4.00;0.70;;;;;;;;;;4864525;29;20078;-77
2022/02/25 10:48:11;;;;;;;4.63;0.68;;;;;;;;;;4866191;29;20072;-77
2022/02/25 10:50:46;;;;;;;6.70;0.88;;;;;;;;;;4862512;29;20548;-77
2022/02/25 10:53:13;;;;;;;2.35;0.50;;;;;;;;;;4860742;29;20124;-77
2022/02/25 10:55:40;;;;;;;4.65;0.52;;;;;;;;;;4865185;29;20029;-77
2022/02/25 10:58:06;;;;;;;2.38;0.50;;;;;;;;;;4869728;29;20033;-77
2022/02/25 11:00:32;;;;;;;4.25;0.70;;;;;;;;;;4859300;29;20411;-77
2022/02/25 11:02:59;;;;;;;4.40;0.80;;;;;;;;;;4859591;29;20037;-77
2022/02/25 11:05:35;;;;;;;4.22;0.60;;;;;;;;;;4868510;29;20033;-77
2022/02/25 11:08:02;;;;;;;3.28;0.70;;;;;;;;;;4863576;29;20045;-77
2022/02/25 11:10:29;;;;;;;3.25;0.40;;;;;;;;;;4866129;29;20038;-77
2022/02/25 11:12:56;;;;;;;5.57;0.60;;;;;;;;;;4863951;29;20392;-77
2022/02/25 11:15:24;;;;;;;1.80;0.38;;;;;;;;;;4868340;29;20045;-77
2022/02/25 11:17:50;;;;;;;3.10;0.40;;;;;;;;;;4863726;29;20472;-77
2022/02/25 11:20:21;;;;;;;2.03;0.28;;;;;;;;;;4864174;29;20061;-77
2022/02/25 11:22:49;;;;;;;4.57;0.32;;;;;;;;;;4863225;29;20070;-77
2022/02/25 11:25:16;;;;;;;2.88;0.38;;;;;;;;;;4868477;29;20444;-78
2022/02/25 11:27:43;;;;;;;1.90;0.40;;;;;;;;;;4865154;29;20059;-77
2022/02/25 11:30:14;;;;;;;5.45;0.50;;;;;;;;;;4866114;29;20041;-77
2022/02/25 11:32:55;;;;;;;1.35;0.40;;;;;;;;;;4864686;29;20476;-77
2022/02/25 11:35:26;;;;;;;1.77;0.30;;;;;;;;;;4866785;29;20044;-77
2022/02/25 11:37:58;;;;;;;4.30;0.40;;;;;;;;;;4865688;29;20049;-77
2022/02/25 11:40:43;;;;;;;3.10;0.40;;;;;;;;;;4867992;29;20416;-77
2022/02/25 11:43:10;;;;;;;3.50;0.60;;;;;;;;;;4860511;29;20041;-77
2022/02/25 11:45:47;;;;;;;1.23;0.25;;;;;;;;;;4858158;29;20029;-78
2022/02/25 11:48:17;;;;;;;2.03;0.47;;;;;;;;;;4863500;29;20049;-77
2022/02/25 11:50:43;;;;;;;1.25;0.20;;;;;;;;;;4868493;29;20039;-77
2022/02/25 11:53:35;;;;;;;3.95;0.40;;;;;;;;;;4865640;29;20036;-77
2022/02/25 11:56:15;;;;;;;2.83;0.22;;;;;;;;;;4856172;29;20132;-77
2022/02/25 11:58:51;;;;;;;1.48;0.22;;;;;;;;;;4862290;29;20041;-78
2022/02/25 12:01:20;;;;;;;4.50;0.30;;;;;;;;;;4865318;29;20116;-77
2022/02/25 12:04:05;;;;;;;1.40;0.35;;;;;;;;;;4864945;29;20048;-77
2022/02/25 12:06:50;;;;;;;3.38;0.50;;;;;;;;;;4863157;29;20041;-77
2022/02/25 12:09:36;;;;;;;1.77;0.30;;;;;;;;;;4866689;29;20052;-77
2022/02/25 12:12:23;;;;;;;2.25;0.38;;;;;;;;;;4867181;29;20053;-77
2022/02/25 12:14:58;;;;;;;2.17;0.30;;;;;;;;;;4866630;29;20051;-77
2022/02/25 12:17:43;;;;;;;2.83;0.30;;;;;;;;;;4866245;29;20057;-77
2022/02/25 12:20:09;;;;;;;1.63;0.40;;;;;;;;;;4862758;29;20045;-77
2022/02/25 12:22:54;;;;;;;2.83;0.30;;;;;;;;;;4864840;29;20042;-77
2022/02/25 12:25:39;;;;;;;1.95;0.30;;;;;;;;;;4869495;29;20879;-77
2022/02/25 12:28:05;;;;;;;4.55;0.40;;;;;;;;;;4866180;29;20085;-77
2022/02/25 12:30:42;;;;;;;3.70;0.40;;;;;;;;;;4872412;29;20089;-77
2022/02/25 12:33:27;;;;;;;2.13;0.20;;;;;;;;;;4862899;29;20037;-77
2022/02/25 12:35:56;;;;;;;3.78;0.50;;;;;;;;;;4865151;29;20033;-77
2022/02/25 12:38:23;;;;;;;2.15;0.98;;;;;;;;;;4871898;29;20439;-77
2022/02/25 12:40:50;;;;;;;3.35;0.30;;;;;;;;;;4867153;29;20065;-77
2022/02/25 12:43:16;;;;;;;3.85;0.25;;;;;;;;;;4865138;29;20483;-77
2022/02/25 12:45:42;;;;;;;7.60;0.60;;;;;;;;;;4858390;29;20033;-77
2022/02/25 12:48:08;;;;;;;5.28;0.80;;;;;;;;;;4862439;29;20522;-77
2022/02/25 12:50:41;;;;;;;6.13;0.50;;;;;;;;;;4859992;29;20037;-77
2022/02/25 12:53:08;;;;;;;1.10;0.30;;;;;;;;;;4860075;29;20072;-77
2022/02/25 12:55:34;;;;;;;3.42;0.30;;;;;;;;;;4865044;29;20040;-77
2022/02/25 12:58:00;;;;;;;3.22;0.35;;;;;;;;;;4844192;29;20049;-77
2022/02/25 13:00:26;;;;;;;2.22;0.30;;;;;;;;;;4859797;29;20078;-77
2022/02/25 13:02:55;;;;;;;2.78;0.50;;;;;;;;;;4859969;29;20084;-77
2022/02/25 13:05:24;;;;;;;1.20;0.30;;;;;;;;;;4860645;29;20120;-77
2022/02/25 13:07:57;;;;;;;1.92;0.30;;;;;;;;;;4865342;29;20107;-77
2022/02/25 13:10:27;;;;;;;3.72;0.50;;;;;;;;;;4868264;29;20033;-77
2022/02/25 13:12:53;;;;;;;0.93;0.20;;;;;;;;;;4870131;29;20078;-77
2022/02/25 13:15:25;;;;;;;4.07;0.40;;;;;;;;;;4864432;29;20133;-77
2022/02/25 13:17:52;;;;;;;2.70;0.30;;;;;;;;;;4864129;29;20044;-77
2022/02/25 13:20:21;;;;;;;6.55;0.60;;;;;;;;;;4859897;29;20040;-77
2022/02/25 13:22:48;;;;;;;3.75;0.52;;;;;;;;;;4867154;29;20064;-77
2022/02/25 13:25:19;;;;;;;2.15;0.30;;;;;;;;;;4865599;29;20468;-77
2022/02/25 13:27:47;;;;;;;4.03;0.45;;;;;;;;;;4863833;29;20056;-77
2022/02/25 13:30:18;;;;;;;2.08;0.40;;;;;;;;;;4863557;29;20038;-77
2022/02/25 13:32:49;;;;;;;2.55;0.50;;;;;;;;;;4873484;29;20040;-77
2022/02/25 13:35:15;;;;;;;3.58;0.50;;;;;;;;;;4871243;29;20105;-77
2022/02/25 13:37:48;;;;;;;3.33;0.40;;;;;;;;;;4868228;29;20432;-76
2022/02/25 13:40:29;;;;;;;3.92;0.50;;;;;;;;;;4867035;29;20116;-77
2022/02/25 13:42:55;;;;;;;5.13;0.73;;;;;;;;;;4867333;29;20034;-77
2022/02/25 13:45:34;;;;;;;2.95;0.47;;;;;;;;;;4861884;29;20034;-77
2022/02/25 13:53:42;;;;;;;1.25;0.30;;;;;;;;;;4865516;29;20055;-77
2022/02/25 13:56:09;;;;;;;2.10;0.50;;;;;;;;;;4867706;29;20037;-77
2022/02/25 13:58:35;;;;;;;2.25;0.40;;;;;;;;;;4862715;29;20838;-77
2022/02/25 14:01:01;;;;;;;4.25;0.32;;;;;;;;;;4867235;29;20072;-77
2022/02/25 14:03:37;;;;;;;2.30;0.45;;;;;;;;;;4861559;29;20045;-77
2022/02/25 14:06:03;;;;;;;5.13;0.60;;;;;;;;;;4869266;29;20037;-77
2022/02/25 14:08:33;;;;;;;5.53;0.55;;;;;;;;;;4870736;29;20072;-77
2022/02/25 14:11:00;;;;;;;1.20;0.30;;;;;;;;;;4859217;29;20822;-77
2022/02/25 14:13:32;;;;;;;1.52;0.30;;;;;;;;;;4873938;29;20041;-77
2022/02/25 14:15:58;;;;;;;;;;;;;;;;;;4868361;29;20041;-77
2022/02/25 14:18:27;;;;;;;3.33;0.30;;;;;;;;;;4863797;29;19928;-77
2022/02/25 14:20:53;;;;;;;2.45;0.30;;;;;;;;;;4861636;29;20388;-77
2022/02/25 14:23:19;;;;;;;1.08;0.32;;;;;;;;;;4867387;29;20486;-77
2022/02/25 14:25:45;;;;;;;2.65;0.45;;;;;;;;;;4862409;29;20056;-77
2022/02/25 14:28:16;;;;;;;2.80;0.40;;;;;;;;;;4860213;29;20124;-77
2022/02/25 14:30:42;;;;;;;2.17;0.40;;;;;;;;;;4867456;29;20832;-77
2022/02/25 14:33:29;;;;;;;3.30;0.50;;;;;;;;;;4866789;29;20045;-77
2022/02/25 14:36:13;;;;;;;1.65;0.30;;;;;;;;;;4850119;29;20045;-77
2022/02/25 14:38:40;;;;;;;4.10;0.55;;;;;;;;;;4865185;29;20514;-77
2022/02/25 14:41:07;;;;;;;1.65;0.20;;;;;;;;;;4859966;29;20065;-76
2022/02/25 14:43:33;;;;;;;2.78;0.40;;;;;;;;;;4862192;29;20037;-77
2022/02/25 14:45:59;;;;;;;3.17;0.57;;;;;;;;;;4868140;29;20033;-77
2022/02/25 14:48:25;;;;;;;2.80;0.30;;;;;;;;;;4860457;29;20120;-77
2022/02/25 14:50:52;;;;;;;3.13;0.45;;;;;;;;;;4865507;29;20173;-77
2022/02/25 14:53:19;;;;;;;4.55;0.77;;;;;;;;;;4861563;29;20484;-77
2022/02/25 14:55:45;;;;;;;3.35;0.75;;;;;;;;;;4867582;29;20041;-77